createdAt,value
2023-05-19T00:01:19.197Z,63.14
2023-05-19T00:06:25.129Z,63.59
2023-05-19T00:11:29.217Z,63.46
2023-05-19T00:16:32.673Z,62.98
2023-05-19T00:21:38.290Z,63.10
2023-05-19T00:26:41.510Z,63.12
2023-05-19T00:31:44.856Z,62.58
2023-05-19T00:36:47.941Z,62.84
2023-05-19T00:41:51.349Z,63.37
2023-05-19T00:46:54.357Z,63.41
2023-05-19T00:51:58.411Z,63.72
2023-05-19T00:57:01.558Z,64.35
2023-05-19T01:02:04.911Z,64.49
2023-05-19T01:07:08.389Z,64.93
2023-05-19T01:12:11.642Z,65.01
2023-05-19T01:17:34.678Z,65.73
2023-05-19T01:23:08.752Z,65.95
2023-05-19T01:28:30.806Z,65.91
2023-05-19T01:33:34.812Z,66.08
2023-05-19T01:38:39.311Z,66.59
2023-05-19T01:43:43.082Z,66.90
2023-05-19T01:48:47.138Z,67.12
2023-05-19T01:53:50.246Z,68.62
2023-05-19T01:59:04.333Z,69.22
2023-05-19T02:04:10.216Z,69.31
2023-05-19T02:09:41.257Z,69.63
2023-05-19T02:14:58.798Z,69.12
2023-05-19T02:20:02.652Z,68.53
2023-05-19T02:25:06.137Z,69.69
2023-05-19T02:30:10.164Z,70.06
2023-05-19T02:35:13.863Z,69.41
2023-05-19T02:40:18.768Z,69.07
2023-05-19T02:45:21.749Z,67.19
2023-05-19T02:50:24.754Z,67.27
2023-05-19T02:55:27.764Z,67.91
2023-05-19T03:00:30.898Z,68.06
2023-05-19T03:05:34.090Z,67.86
2023-05-19T03:10:37.099Z,67.87
2023-05-19T03:15:40.093Z,67.76
2023-05-19T03:20:44.770Z,67.88
2023-05-19T03:25:48.064Z,67.99
2023-05-19T03:30:51.126Z,68.46
2023-05-19T03:35:54.173Z,68.31
2023-05-19T03:40:57.180Z,68.48
2023-05-19T03:46:00.353Z,68.62
2023-05-19T03:51:04.731Z,68.51
2023-05-19T03:56:08.371Z,68.45
2023-05-19T04:01:11.821Z,68.58
2023-05-19T04:06:15.295Z,68.55
2023-05-19T04:11:20.239Z,68.46
2023-05-19T04:16:23.443Z,68.61
2023-05-19T04:21:26.761Z,68.63
2023-05-19T04:26:31.242Z,69.11
2023-05-19T04:31:36.117Z,69.13
2023-05-19T04:36:39.266Z,68.76
2023-05-19T04:41:44.835Z,68.54
2023-05-19T04:46:47.983Z,68.74
2023-05-19T04:51:54.101Z,68.62
2023-05-19T04:56:58.695Z,68.51
2023-05-19T05:02:01.822Z,68.16
2023-05-19T05:07:05.854Z,67.85
2023-05-19T05:12:09.622Z,67.60
2023-05-19T05:17:13.922Z,67.43
2023-05-19T05:22:17.827Z,66.98
2023-05-19T05:27:21.111Z,66.69
2023-05-19T05:32:24.824Z,66.41
2023-05-19T05:37:28.359Z,65.97
2023-05-19T05:42:31.554Z,65.41
2023-05-19T05:47:38.161Z,65.04
2023-05-19T05:52:42.683Z,64.68
2023-05-19T05:57:46.015Z,64.07
2023-05-19T06:02:50.954Z,63.65
2023-05-19T06:07:54.469Z,62.75
2023-05-19T06:12:57.922Z,62.62
2023-05-19T06:18:01.577Z,62.66
2023-05-19T06:23:05.242Z,62.07
2023-05-19T06:28:08.452Z,61.62
2023-05-19T06:33:11.557Z,60.51
2023-05-19T06:38:14.670Z,59.85
2023-05-19T06:43:18.187Z,60.34
2023-05-19T06:48:21.699Z,59.59
2023-05-19T06:53:24.708Z,60.08
2023-05-19T06:58:28.132Z,59.71
2023-05-19T07:03:31.563Z,57.78
2023-05-19T07:08:35.474Z,57.23
2023-05-19T07:13:38.684Z,56.46
2023-05-19T07:18:41.757Z,55.97
2023-05-19T07:23:45.013Z,56.34
2023-05-19T07:28:48.115Z,54.86
2023-05-19T07:33:54.372Z,56.03
2023-05-19T07:38:57.958Z,55.90
2023-05-19T07:44:01.029Z,55.81
2023-05-19T07:49:04.746Z,56.28
2023-05-19T07:54:08.678Z,56.57
2023-05-19T07:59:11.884Z,55.86
2023-05-19T08:04:15.070Z,55.05
2023-05-19T08:09:18.970Z,54.29
2023-05-19T08:14:23.060Z,53.67
2023-05-19T08:19:27.153Z,53.38
2023-05-19T08:24:30.505Z,54.19
2023-05-19T08:29:33.614Z,52.87
2023-05-19T08:34:36.618Z,52.84
2023-05-19T08:39:40.044Z,53.62
2023-05-19T08:44:44.268Z,52.83
2023-05-19T08:49:51.885Z,52.56
2023-05-19T09:00:13.265Z,52.53
2023-05-19T09:05:17.967Z,52.26
2023-05-19T09:10:21.205Z,51.94
2023-05-19T09:15:28.110Z,51.09
2023-05-19T09:20:31.734Z,50.89
2023-05-19T09:25:35.112Z,50.20
2023-05-19T09:30:39.587Z,50.23
2023-05-19T09:35:47.303Z,50.54
2023-05-19T09:40:50.408Z,50.53
2023-05-19T09:46:12.191Z,50.34
2023-05-19T09:51:17.849Z,50.72
2023-05-19T09:56:24.110Z,50.10
2023-05-19T10:01:27.457Z,49.83
2023-05-19T10:06:31.353Z,49.18
2023-05-19T10:11:34.664Z,49.53
2023-05-19T10:16:38.947Z,50.52
2023-05-19T10:21:42.008Z,51.03
2023-05-19T10:26:49.829Z,51.57
2023-05-19T10:31:55.937Z,51.46
2023-05-19T10:37:12.222Z,53.41
2023-05-19T10:42:35.960Z,54.70
2023-05-19T10:47:41.658Z,55.49
2023-05-19T10:52:45.022Z,56.16
2023-05-19T10:57:56.931Z,58.30
2023-05-19T11:03:17.031Z,59.45
2023-05-19T11:08:32.887Z,60.46
2023-05-19T11:13:36.760Z,62.25
2023-05-19T11:18:40.007Z,62.37
2023-05-19T11:23:44.288Z,61.82
2023-05-19T11:28:48.324Z,61.33
2023-05-19T11:33:51.566Z,60.91
2023-05-19T11:38:55.280Z,61.33
2023-05-19T11:43:58.294Z,60.33
2023-05-19T11:49:02.620Z,61.05
2023-05-19T11:54:05.626Z,61.57
2023-05-19T11:59:09.960Z,60.90
2023-05-19T12:04:12.972Z,61.06
2023-05-19T12:09:16.284Z,61.20
2023-05-19T12:14:19.595Z,62.00
2023-05-19T12:19:26.482Z,62.85
2023-05-19T12:24:29.822Z,64.36
2023-05-19T12:29:33.231Z,64.50
2023-05-19T12:34:39.923Z,65.49
2023-05-19T12:39:43.448Z,65.62
2023-05-19T12:44:54.020Z,65.83
2023-05-19T12:50:00.487Z,65.99
2023-05-19T12:55:06.710Z,66.33
2023-05-19T13:00:21.807Z,66.47
2023-05-19T13:05:25.093Z,66.62
2023-05-19T13:10:29.057Z,67.12
2023-05-19T13:15:37.766Z,67.68
2023-05-19T13:20:42.391Z,67.19
2023-05-19T13:25:45.533Z,67.44
2023-05-19T13:30:49.932Z,67.01
2023-05-19T13:35:53.475Z,65.72
2023-05-19T13:40:56.585Z,64.16
2023-05-19T13:45:59.628Z,62.92
2023-05-19T13:51:04.925Z,62.73
2023-05-19T13:56:08.515Z,63.32
2023-05-19T14:01:11.612Z,63.07
2023-05-19T14:06:14.899Z,63.78
2023-05-19T14:11:20.172Z,64.17
2023-05-19T14:16:23.374Z,64.60
2023-05-19T14:21:27.698Z,64.86
2023-05-19T14:26:31.121Z,64.26
2023-05-19T14:31:35.369Z,63.69
2023-05-19T14:36:38.505Z,62.95
2023-05-19T14:41:41.677Z,62.51
2023-05-19T14:46:44.859Z,62.94
2023-05-19T14:51:48.092Z,63.05
2023-05-19T14:56:51.002Z,62.85
2023-05-19T15:01:54.110Z,62.46
2023-05-19T15:12:08.828Z,62.15
2023-05-19T15:17:11.887Z,63.03
2023-05-19T15:22:15.045Z,63.85
2023-05-19T15:27:18.153Z,64.48
2023-05-19T15:32:21.261Z,64.95
2023-05-19T15:37:24.332Z,64.82
2023-05-19T15:42:27.196Z,64.43
2023-05-19T15:47:30.307Z,63.53
2023-05-19T15:52:33.506Z,63.74
2023-05-19T15:57:36.540Z,63.89
2023-05-19T16:02:39.758Z,63.75
2023-05-19T16:07:43.127Z,63.97
2023-05-19T16:12:46.344Z,64.20
2023-05-19T16:17:49.376Z,64.09
2023-05-19T16:22:52.757Z,64.31
2023-05-19T16:27:55.974Z,64.03
2023-05-19T16:32:59.093Z,64.49
2023-05-19T16:38:02.397Z,64.45
2023-05-19T16:43:05.609Z,64.76
2023-05-19T16:48:08.761Z,64.93
2023-05-19T16:53:11.928Z,65.07
2023-05-19T16:58:15.143Z,65.42
2023-05-19T17:03:18.490Z,65.50
2023-05-19T17:08:21.461Z,65.66
2023-05-19T17:13:24.563Z,65.80
2023-05-19T17:18:27.675Z,66.12
2023-05-19T17:23:30.789Z,66.20
2023-05-19T17:28:33.789Z,66.35
2023-05-19T17:33:37.046Z,66.55
2023-05-19T17:38:40.724Z,66.63
2023-05-19T17:43:43.836Z,66.91
2023-05-19T17:48:46.948Z,66.97
2023-05-19T17:53:50.455Z,67.03
2023-05-19T17:58:54.081Z,67.12
2023-05-19T18:03:57.879Z,67.18
2023-05-19T18:09:03.576Z,67.50
2023-05-19T18:14:06.691Z,67.60
2023-05-19T18:19:09.832Z,67.90
2023-05-19T18:24:13.002Z,68.07
2023-05-19T18:29:16.217Z,68.30
2023-05-19T18:34:19.328Z,68.58
2023-05-19T18:39:22.535Z,68.95
2023-05-19T18:44:25.846Z,69.27
2023-05-19T18:49:28.855Z,69.63
2023-05-19T18:54:32.820Z,69.79
2023-05-19T18:59:35.994Z,69.97
2023-05-19T19:04:39.146Z,70.07
2023-05-19T19:09:43.963Z,70.28
2023-05-19T19:14:47.381Z,70.12
2023-05-19T19:19:50.576Z,70.47
2023-05-19T19:24:53.791Z,70.56
2023-05-19T19:30:00.198Z,70.96
2023-05-19T19:35:03.629Z,71.61
2023-05-19T19:40:07.308Z,72.34
2023-05-19T19:45:12.552Z,73.03
2023-05-19T19:50:18.759Z,73.68
2023-05-19T19:55:21.949Z,73.70
2023-05-19T20:00:25.199Z,74.46
2023-05-19T20:05:28.395Z,74.81
2023-05-19T20:10:31.810Z,75.35
2023-05-19T20:15:35.021Z,75.27
2023-05-19T20:20:39.591Z,75.80
2023-05-19T20:25:54.807Z,75.45
2023-05-19T20:31:06.511Z,75.85
2023-05-19T20:36:11.147Z,76.12
2023-05-19T20:41:15.049Z,75.87
2023-05-19T20:46:18.215Z,76.38
2023-05-19T20:51:22.595Z,76.70
2023-05-19T20:56:25.701Z,77.08
2023-05-19T21:01:30.199Z,76.70
2023-05-19T21:06:33.976Z,76.91
2023-05-19T21:11:37.284Z,77.11
2023-05-19T21:16:42.707Z,77.42
2023-05-19T21:21:47.392Z,77.46
2023-05-19T21:26:51.626Z,77.50
2023-05-19T21:31:56.472Z,77.88
2023-05-19T21:36:59.481Z,77.40
2023-05-19T21:42:03.232Z,77.58
2023-05-19T21:47:06.824Z,77.74
2023-05-19T21:52:10.243Z,77.93
2023-05-19T21:57:13.247Z,77.99
2023-05-19T22:02:16.620Z,78.34
2023-05-19T22:07:27.081Z,78.13
2023-05-19T22:12:32.239Z,77.78
2023-05-19T22:17:35.289Z,78.59
2023-05-19T22:22:38.322Z,77.99
2023-05-19T22:27:41.317Z,78.01
2023-05-19T22:32:44.344Z,77.92
2023-05-19T22:37:47.441Z,77.86
2023-05-19T22:42:50.648Z,77.78
2023-05-19T22:47:55.500Z,77.64
2023-05-19T22:52:58.711Z,77.82
2023-05-19T22:58:01.713Z,77.95
2023-05-19T23:03:04.976Z,77.96
2023-05-19T23:08:08.137Z,77.91
2023-05-19T23:13:12.168Z,78.29
2023-05-19T23:18:15.394Z,77.88
2023-05-19T23:23:19.916Z,78.21
2023-05-19T23:28:22.928Z,78.38
2023-05-19T23:33:26.241Z,78.27
2023-05-19T23:38:29.348Z,78.28
2023-05-19T23:43:32.809Z,78.36
2023-05-19T23:48:36.816Z,78.23
2023-05-19T23:53:39.912Z,78.25
2023-05-19T23:58:43.136Z,78.25
